sensor_id;sensor_type;location;lat;lon;timestamp;temperature;humidity
66184;DHT22;52989;48.796;9.806;2023-03-14T00:01:10;9.30;99.90
66184;DHT22;52989;48.796;9.806;2023-03-14T00:03:36;9.40;99.90
66184;DHT22;52989;48.796;9.806;2023-03-14T00:06:02;9.50;99.90
66184;DHT22;52989;48.796;9.806;2023-03-14T00:08:28;9.60;99.90
66184;DHT22;52989;48.796;9.806;2023-03-14T00:10:53;9.40;99.90
66184;DHT22;52989;48.796;9.806;2023-03-14T00:13:19;9.50;99.90
66184;DHT22;52989;48.796;9.806;2023-03-14T00:15:44;9.40;99.90
66184;DHT22;52989;48.796;9.806;2023-03-14T00:18:10;9.60;99.90
66184;DHT22;52989;48.796;9.806;2023-03-14T00:20:35;9.60;99.90
66184;DHT22;52989;48.796;9.806;2023-03-14T00:23:01;9.50;99.90
66184;DHT22;52989;48.796;9.806;2023-03-14T00:25:27;9.50;99.90
66184;DHT22;52989;48.796;9.806;2023-03-14T00:27:53;9.60;99.90
66184;DHT22;52989;48.796;9.806;2023-03-14T00:30:18;9.50;99.90
66184;DHT22;52989;48.796;9.806;2023-03-14T00:32:44;9.60;99.90
66184;DHT22;52989;48.796;9.806;2023-03-14T00:35:10;9.60;99.90
66184;DHT22;52989;48.796;9.806;2023-03-14T00:37:36;9.70;99.90
66184;DHT22;52989;48.796;9.806;2023-03-14T00:40:02;9.60;99.90
66184;DHT22;52989;48.796;9.806;2023-03-14T00:42:30;9.60;99.90
66184;DHT22;52989;48.796;9.806;2023-03-14T00:44:57;9.70;99.90
66184;DHT22;52989;48.796;9.806;2023-03-14T00:47:22;9.70;99.90
66184;DHT22;52989;48.796;9.806;2023-03-14T00:49:48;9.90;99.90
66184;DHT22;52989;48.796;9.806;2023-03-14T00:52:13;9.70;99.90
66184;DHT22;52989;48.796;9.806;2023-03-14T00:54:39;9.90;99.90
66184;DHT22;52989;48.796;9.806;2023-03-14T00:57:04;9.80;99.90
66184;DHT22;52989;48.796;9.806;2023-03-14T00:59:30;10.20;99.90
66184;DHT22;52989;48.796;9.806;2023-03-14T01:01:55;10.10;99.90
66184;DHT22;52989;48.796;9.806;2023-03-14T01:04:21;9.90;99.90
66184;DHT22;52989;48.796;9.806;2023-03-14T01:06:46;9.60;99.90
66184;DHT22;52989;48.796;9.806;2023-03-14T01:09:11;9.40;99.90
66184;DHT22;52989;48.796;9.806;2023-03-14T01:11:37;9.30;99.90
66184;DHT22;52989;48.796;9.806;2023-03-14T01:14:02;9.30;99.90
66184;DHT22;52989;48.796;9.806;2023-03-14T01:16:29;9.40;99.90
66184;DHT22;52989;48.796;9.806;2023-03-14T01:18:55;9.30;99.90
66184;DHT22;52989;48.796;9.806;2023-03-14T01:23:46;9.60;99.90
66184;DHT22;52989;48.796;9.806;2023-03-14T01:26:13;9.60;99.90
66184;DHT22;52989;48.796;9.806;2023-03-14T01:28:38;9.60;99.90
66184;DHT22;52989;48.796;9.806;2023-03-14T01:31:05;9.60;99.90
66184;DHT22;52989;48.796;9.806;2023-03-14T01:33:30;9.60;99.90
66184;DHT22;52989;48.796;9.806;2023-03-14T01:35:56;9.40;99.90
66184;DHT22;52989;48.796;9.806;2023-03-14T01:38:21;9.50;99.90
66184;DHT22;52989;48.796;9.806;2023-03-14T01:40:47;9.70;99.90
66184;DHT22;52989;48.796;9.806;2023-03-14T01:43:14;9.60;99.90
66184;DHT22;52989;48.796;9.806;2023-03-14T01:48:23;9.80;99.90
66184;DHT22;52989;48.796;9.806;2023-03-14T01:50:49;9.60;99.90
66184;DHT22;52989;48.796;9.806;2023-03-14T01:53:14;9.60;99.90
66184;DHT22;52989;48.796;9.806;2023-03-14T01:55:40;9.80;99.90
66184;DHT22;52989;48.796;9.806;2023-03-14T01:58:06;9.80;99.90
66184;DHT22;52989;48.796;9.806;2023-03-14T02:00:32;9.60;99.90
66184;DHT22;52989;48.796;9.806;2023-03-14T02:03:16;9.40;99.90
66184;DHT22;52989;48.796;9.806;2023-03-14T02:05:42;9.40;99.90
66184;DHT22;52989;48.796;9.806;2023-03-14T02:08:13;9.30;99.90
66184;DHT22;52989;48.796;9.806;2023-03-14T02:10:40;9.20;99.90
66184;DHT22;52989;48.796;9.806;2023-03-14T02:13:06;9.30;99.90
66184;DHT22;52989;48.796;9.806;2023-03-14T02:15:32;9.20;99.90
66184;DHT22;52989;48.796;9.806;2023-03-14T02:17:58;9.40;99.90
66184;DHT22;52989;48.796;9.806;2023-03-14T02:20:28;9.40;99.90
66184;DHT22;52989;48.796;9.806;2023-03-14T02:22:55;9.50;99.90
66184;DHT22;52989;48.796;9.806;2023-03-14T02:27:46;9.50;99.90
66184;DHT22;52989;48.796;9.806;2023-03-14T02:30:17;9.40;99.90
66184;DHT22;52989;48.796;9.806;2023-03-14T02:32:46;9.30;99.90
66184;DHT22;52989;48.796;9.806;2023-03-14T02:35:13;9.50;99.90
66184;DHT22;52989;48.796;9.806;2023-03-14T02:40:10;9.60;99.90
66184;DHT22;52989;48.796;9.806;2023-03-14T02:42:36;9.40;99.90
66184;DHT22;52989;48.796;9.806;2023-03-14T02:47:33;9.60;99.90
66184;DHT22;52989;48.796;9.806;2023-03-14T02:50:08;9.70;99.90
66184;DHT22;52989;48.796;9.806;2023-03-14T02:52:34;9.50;99.90
66184;DHT22;52989;48.796;9.806;2023-03-14T02:55:00;9.50;99.90
66184;DHT22;52989;48.796;9.806;2023-03-14T02:57:25;9.50;99.90
66184;DHT22;52989;48.796;9.806;2023-03-14T02:59:51;9.50;99.90
66184;DHT22;52989;48.796;9.806;2023-03-14T03:02:16;9.70;99.90
66184;DHT22;52989;48.796;9.806;2023-03-14T03:04:42;9.60;99.90
66184;DHT22;52989;48.796;9.806;2023-03-14T03:07:07;9.80;99.90
66184;DHT22;52989;48.796;9.806;2023-03-14T03:09:33;9.60;99.90
66184;DHT22;52989;48.796;9.806;2023-03-14T03:11:58;9.60;99.90
66184;DHT22;52989;48.796;9.806;2023-03-14T03:14:24;9.50;99.90
66184;DHT22;52989;48.796;9.806;2023-03-14T03:16:49;9.60;99.90
66184;DHT22;52989;48.796;9.806;2023-03-14T03:19:15;9.50;99.90
66184;DHT22;52989;48.796;9.806;2023-03-14T03:21:43;9.60;99.90
66184;DHT22;52989;48.796;9.806;2023-03-14T03:24:08;9.40;99.90
66184;DHT22;52989;48.796;9.806;2023-03-14T03:26:34;9.40;99.90
66184;DHT22;52989;48.796;9.806;2023-03-14T03:29:00;9.50;99.90
66184;DHT22;52989;48.796;9.806;2023-03-14T03:31:25;9.40;99.90
66184;DHT22;52989;48.796;9.806;2023-03-14T03:33:51;9.20;99.90
66184;DHT22;52989;48.796;9.806;2023-03-14T03:36:20;9.20;99.90
66184;DHT22;52989;48.796;9.806;2023-03-14T03:38:45;9.40;99.90
66184;DHT22;52989;48.796;9.806;2023-03-14T03:41:11;9.40;99.90
66184;DHT22;52989;48.796;9.806;2023-03-14T03:43:37;9.10;99.90
66184;DHT22;52989;48.796;9.806;2023-03-14T03:46:03;8.90;99.90
66184;DHT22;52989;48.796;9.806;2023-03-14T03:48:29;9.00;99.90
66184;DHT22;52989;48.796;9.806;2023-03-14T03:50:54;9.40;99.90
66184;DHT22;52989;48.796;9.806;2023-03-14T03:53:19;9.00;99.90
66184;DHT22;52989;48.796;9.806;2023-03-14T03:55:45;8.90;99.90
66184;DHT22;52989;48.796;9.806;2023-03-14T03:58:10;9.00;99.90
66184;DHT22;52989;48.796;9.806;2023-03-14T04:00:36;8.90;99.90
66184;DHT22;52989;48.796;9.806;2023-03-14T04:03:01;8.80;99.90
66184;DHT22;52989;48.796;9.806;2023-03-14T04:05:28;8.90;99.90
66184;DHT22;52989;48.796;9.806;2023-03-14T04:07:54;8.70;99.90
66184;DHT22;52989;48.796;9.806;2023-03-14T04:10:19;8.70;99.90
66184;DHT22;52989;48.796;9.806;2023-03-14T04:12:45;8.80;99.90
66184;DHT22;52989;48.796;9.806;2023-03-14T04:15:10;8.80;99.90
66184;DHT22;52989;48.796;9.806;2023-03-14T04:17:35;8.80;99.90
66184;DHT22;52989;48.796;9.806;2023-03-14T04:20:01;8.80;99.90
66184;DHT22;52989;48.796;9.806;2023-03-14T04:22:27;8.70;99.90
66184;DHT22;52989;48.796;9.806;2023-03-14T04:24:53;8.70;99.90
66184;DHT22;52989;48.796;9.806;2023-03-14T04:27:18;8.90;99.90
66184;DHT22;52989;48.796;9.806;2023-03-14T04:29:44;9.10;99.90
66184;DHT22;52989;48.796;9.806;2023-03-14T04:32:09;9.10;99.90
66184;DHT22;52989;48.796;9.806;2023-03-14T04:34:35;9.10;99.90
66184;DHT22;52989;48.796;9.806;2023-03-14T04:37:00;9.20;99.90
66184;DHT22;52989;48.796;9.806;2023-03-14T04:39:26;9.20;99.90
66184;DHT22;52989;48.796;9.806;2023-03-14T04:41:51;9.10;99.90
66184;DHT22;52989;48.796;9.806;2023-03-14T04:44:17;9.10;99.90
66184;DHT22;52989;48.796;9.806;2023-03-14T04:46:43;9.10;99.90
66184;DHT22;52989;48.796;9.806;2023-03-14T04:49:09;9.20;99.90
66184;DHT22;52989;48.796;9.806;2023-03-14T04:51:34;9.20;99.90
66184;DHT22;52989;48.796;9.806;2023-03-14T04:54:00;9.30;99.90
66184;DHT22;52989;48.796;9.806;2023-03-14T04:56:25;9.40;99.90
66184;DHT22;52989;48.796;9.806;2023-03-14T04:58:51;9.30;99.90
66184;DHT22;52989;48.796;9.806;2023-03-14T05:01:16;9.30;99.90
66184;DHT22;52989;48.796;9.806;2023-03-14T05:03:43;9.10;99.90
66184;DHT22;52989;48.796;9.806;2023-03-14T05:06:08;9.10;99.90
66184;DHT22;52989;48.796;9.806;2023-03-14T05:08:34;9.30;99.90
66184;DHT22;52989;48.796;9.806;2023-03-14T05:10:59;9.30;99.90
66184;DHT22;52989;48.796;9.806;2023-03-14T05:13:25;9.10;99.90
66184;DHT22;52989;48.796;9.806;2023-03-14T05:15:50;9.30;99.90
66184;DHT22;52989;48.796;9.806;2023-03-14T05:18:17;9.10;99.90
66184;DHT22;52989;48.796;9.806;2023-03-14T05:20:42;9.20;99.90
66184;DHT22;52989;48.796;9.806;2023-03-14T05:23:11;9.40;99.90
66184;DHT22;52989;48.796;9.806;2023-03-14T05:25:36;9.20;99.90
66184;DHT22;52989;48.796;9.806;2023-03-14T05:28:02;9.10;99.90
66184;DHT22;52989;48.796;9.806;2023-03-14T05:30:27;9.30;99.90
66184;DHT22;52989;48.796;9.806;2023-03-14T05:32:53;9.10;99.90
66184;DHT22;52989;48.796;9.806;2023-03-14T05:35:19;9.00;99.90
66184;DHT22;52989;48.796;9.806;2023-03-14T05:37:44;9.10;99.90
66184;DHT22;52989;48.796;9.806;2023-03-14T05:40:10;9.10;99.90
66184;DHT22;52989;48.796;9.806;2023-03-14T05:42:36;9.30;99.90
66184;DHT22;52989;48.796;9.806;2023-03-14T05:45:01;9.10;99.90
66184;DHT22;52989;48.796;9.806;2023-03-14T05:47:27;9.20;99.90
66184;DHT22;52989;48.796;9.806;2023-03-14T05:49:53;9.40;99.90
66184;DHT22;52989;48.796;9.806;2023-03-14T05:52:18;9.10;99.90
66184;DHT22;52989;48.796;9.806;2023-03-14T05:54:43;9.00;99.90
66184;DHT22;52989;48.796;9.806;2023-03-14T05:57:09;8.90;99.90
66184;DHT22;52989;48.796;9.806;2023-03-14T05:59:34;9.10;99.90
66184;DHT22;52989;48.796;9.806;2023-03-14T06:02:00;9.10;99.90
66184;DHT22;52989;48.796;9.806;2023-03-14T06:04:25;9.00;99.90
66184;DHT22;52989;48.796;9.806;2023-03-14T06:06:51;8.90;99.90
66184;DHT22;52989;48.796;9.806;2023-03-14T06:09:16;9.10;99.90
66184;DHT22;52989;48.796;9.806;2023-03-14T06:11:44;9.20;99.90
66184;DHT22;52989;48.796;9.806;2023-03-14T06:14:11;9.10;99.90
66184;DHT22;52989;48.796;9.806;2023-03-14T06:16:36;9.10;99.90
66184;DHT22;52989;48.796;9.806;2023-03-14T06:19:02;9.10;99.90
66184;DHT22;52989;48.796;9.806;2023-03-14T06:21:27;9.10;99.90
66184;DHT22;52989;48.796;9.806;2023-03-14T06:23:53;9.00;99.90
66184;DHT22;52989;48.796;9.806;2023-03-14T06:26:18;9.20;99.90
66184;DHT22;52989;48.796;9.806;2023-03-14T06:28:44;9.20;99.90
66184;DHT22;52989;48.796;9.806;2023-03-14T06:31:09;9.30;99.90
66184;DHT22;52989;48.796;9.806;2023-03-14T06:33:34;9.50;99.90
66184;DHT22;52989;48.796;9.806;2023-03-14T06:36:00;9.20;99.90
66184;DHT22;52989;48.796;9.806;2023-03-14T06:38:25;9.20;99.90
66184;DHT22;52989;48.796;9.806;2023-03-14T06:40:51;9.20;99.90
66184;DHT22;52989;48.796;9.806;2023-03-14T06:43:16;9.30;99.90
66184;DHT22;52989;48.796;9.806;2023-03-14T06:45:42;9.10;99.90
66184;DHT22;52989;48.796;9.806;2023-03-14T06:48:07;9.00;99.90
66184;DHT22;52989;48.796;9.806;2023-03-14T06:50:33;9.00;99.90
66184;DHT22;52989;48.796;9.806;2023-03-14T06:52:58;8.90;99.90
66184;DHT22;52989;48.796;9.806;2023-03-14T06:55:24;8.80;99.90
66184;DHT22;52989;48.796;9.806;2023-03-14T06:57:49;8.80;99.90
66184;DHT22;52989;48.796;9.806;2023-03-14T07:00:15;8.70;99.90
66184;DHT22;52989;48.796;9.806;2023-03-14T07:02:40;8.90;99.90
66184;DHT22;52989;48.796;9.806;2023-03-14T07:05:06;8.90;99.90
66184;DHT22;52989;48.796;9.806;2023-03-14T07:07:32;8.80;99.90
66184;DHT22;52989;48.796;9.806;2023-03-14T07:09:57;8.80;99.90
66184;DHT22;52989;48.796;9.806;2023-03-14T07:12:23;8.90;99.90
66184;DHT22;52989;48.796;9.806;2023-03-14T07:14:48;8.80;99.90
66184;DHT22;52989;48.796;9.806;2023-03-14T07:17:13;8.80;99.90
66184;DHT22;52989;48.796;9.806;2023-03-14T07:19:39;8.90;99.90
66184;DHT22;52989;48.796;9.806;2023-03-14T07:22:05;8.80;99.90
66184;DHT22;52989;48.796;9.806;2023-03-14T07:24:30;8.90;99.90
66184;DHT22;52989;48.796;9.806;2023-03-14T07:26:56;8.80;99.90
66184;DHT22;52989;48.796;9.806;2023-03-14T07:29:21;9.00;99.90
66184;DHT22;52989;48.796;9.806;2023-03-14T07:31:47;8.90;99.90
66184;DHT22;52989;48.796;9.806;2023-03-14T07:34:12;9.00;99.90
66184;DHT22;52989;48.796;9.806;2023-03-14T07:36:38;9.20;99.90
66184;DHT22;52989;48.796;9.806;2023-03-14T07:39:03;9.30;99.90
66184;DHT22;52989;48.796;9.806;2023-03-14T07:41:29;9.20;99.90
66184;DHT22;52989;48.796;9.806;2023-03-14T07:43:55;9.20;99.90
66184;DHT22;52989;48.796;9.806;2023-03-14T07:46:21;9.30;99.90
66184;DHT22;52989;48.796;9.806;2023-03-14T07:48:46;9.30;99.90
66184;DHT22;52989;48.796;9.806;2023-03-14T07:51:12;9.20;99.90
66184;DHT22;52989;48.796;9.806;2023-03-14T07:53:37;9.30;99.90
66184;DHT22;52989;48.796;9.806;2023-03-14T07:56:03;9.40;99.90
66184;DHT22;52989;48.796;9.806;2023-03-14T07:58:28;9.60;99.90
66184;DHT22;52989;48.796;9.806;2023-03-14T08:00:54;9.80;99.90
66184;DHT22;52989;48.796;9.806;2023-03-14T08:03:19;10.00;99.70
66184;DHT22;52989;48.796;9.806;2023-03-14T08:05:48;10.10;98.70
66184;DHT22;52989;48.796;9.806;2023-03-14T08:08:14;10.10;98.80
66184;DHT22;52989;48.796;9.806;2023-03-14T08:10:40;10.30;98.40
66184;DHT22;52989;48.796;9.806;2023-03-14T08:13:05;10.30;98.40
66184;DHT22;52989;48.796;9.806;2023-03-14T08:15:31;10.50;98.10
66184;DHT22;52989;48.796;9.806;2023-03-14T08:17:57;10.40;97.90
66184;DHT22;52989;48.796;9.806;2023-03-14T08:20:23;10.50;98.60
66184;DHT22;52989;48.796;9.806;2023-03-14T08:22:49;10.60;98.20
66184;DHT22;52989;48.796;9.806;2023-03-14T08:25:15;10.70;97.40
66184;DHT22;52989;48.796;9.806;2023-03-14T08:27:41;10.90;96.60
66184;DHT22;52989;48.796;9.806;2023-03-14T08:30:08;11.00;96.70
66184;DHT22;52989;48.796;9.806;2023-03-14T08:32:33;11.10;96.70
66184;DHT22;52989;48.796;9.806;2023-03-14T08:34:59;11.30;96.40
66184;DHT22;52989;48.796;9.806;2023-03-14T08:37:24;11.40;96.00
66184;DHT22;52989;48.796;9.806;2023-03-14T08:39:50;11.50;95.40
66184;DHT22;52989;48.796;9.806;2023-03-14T08:42:16;11.60;94.70
66184;DHT22;52989;48.796;9.806;2023-03-14T08:44:41;11.80;94.70
66184;DHT22;52989;48.796;9.806;2023-03-14T08:47:07;11.70;94.10
66184;DHT22;52989;48.796;9.806;2023-03-14T08:49:32;11.70;94.00
66184;DHT22;52989;48.796;9.806;2023-03-14T08:51:57;11.70;93.90
66184;DHT22;52989;48.796;9.806;2023-03-14T08:54:24;11.60;93.90
66184;DHT22;52989;48.796;9.806;2023-03-14T08:56:49;11.50;93.80
66184;DHT22;52989;48.796;9.806;2023-03-14T08:59:14;11.60;94.10
66184;DHT22;52989;48.796;9.806;2023-03-14T09:01:40;11.60;93.80
66184;DHT22;52989;48.796;9.806;2023-03-14T09:04:05;11.60;94.10
66184;DHT22;52989;48.796;9.806;2023-03-14T09:06:32;11.50;93.20
66184;DHT22;52989;48.796;9.806;2023-03-14T09:08:57;11.50;92.90
66184;DHT22;52989;48.796;9.806;2023-03-14T09:11:23;11.60;93.20
66184;DHT22;52989;48.796;9.806;2023-03-14T09:13:48;11.90;94.00
66184;DHT22;52989;48.796;9.806;2023-03-14T09:16:14;11.90;93.30
66184;DHT22;52989;48.796;9.806;2023-03-14T09:18:39;12.20;92.70
66184;DHT22;52989;48.796;9.806;2023-03-14T09:21:05;12.10;91.60
66184;DHT22;52989;48.796;9.806;2023-03-14T09:23:30;12.20;92.60
66184;DHT22;52989;48.796;9.806;2023-03-14T09:25:57;12.50;91.90
66184;DHT22;52989;48.796;9.806;2023-03-14T09:28:22;12.70;91.90
66184;DHT22;52989;48.796;9.806;2023-03-14T09:30:48;13.10;91.90
66184;DHT22;52989;48.796;9.806;2023-03-14T09:33:15;13.10;91.00
66184;DHT22;52989;48.796;9.806;2023-03-14T09:35:40;13.20;90.60
66184;DHT22;52989;48.796;9.806;2023-03-14T09:38:06;13.00;90.30
66184;DHT22;52989;48.796;9.806;2023-03-14T09:40:33;13.00;89.20
66184;DHT22;52989;48.796;9.806;2023-03-14T09:42:59;13.10;88.00
66184;DHT22;52989;48.796;9.806;2023-03-14T09:45:26;13.10;88.20
66184;DHT22;52989;48.796;9.806;2023-03-14T09:47:52;13.40;89.10
66184;DHT22;52989;48.796;9.806;2023-03-14T09:50:19;13.60;90.60
66184;DHT22;52989;48.796;9.806;2023-03-14T09:52:51;13.90;89.10
66184;DHT22;52989;48.796;9.806;2023-03-14T09:55:19;13.60;87.90
66184;DHT22;52989;48.796;9.806;2023-03-14T09:57:47;13.70;89.50
66184;DHT22;52989;48.796;9.806;2023-03-14T10:00:14;13.90;87.20
66184;DHT22;52989;48.796;9.806;2023-03-14T10:02:42;14.00;89.20
66184;DHT22;52989;48.796;9.806;2023-03-14T10:05:13;13.70;88.70
66184;DHT22;52989;48.796;9.806;2023-03-14T10:07:39;13.70;88.40
66184;DHT22;52989;48.796;9.806;2023-03-14T10:10:09;13.80;87.90
66184;DHT22;52989;48.796;9.806;2023-03-14T10:12:36;14.10;87.30
66184;DHT22;52989;48.796;9.806;2023-03-14T10:15:03;14.30;85.50
66184;DHT22;52989;48.796;9.806;2023-03-14T10:17:29;13.90;87.10
66184;DHT22;52989;48.796;9.806;2023-03-14T10:19:56;13.90;86.50
66184;DHT22;52989;48.796;9.806;2023-03-14T10:22:23;14.20;87.80
66184;DHT22;52989;48.796;9.806;2023-03-14T10:24:52;14.10;85.60
66184;DHT22;52989;48.796;9.806;2023-03-14T10:27:19;13.80;87.60
66184;DHT22;52989;48.796;9.806;2023-03-14T10:29:52;13.60;86.80
66184;DHT22;52989;48.796;9.806;2023-03-14T10:32:19;13.40;88.10
66184;DHT22;52989;48.796;9.806;2023-03-14T10:34:45;13.30;87.00
66184;DHT22;52989;48.796;9.806;2023-03-14T10:37:28;13.20;86.80
66184;DHT22;52989;48.796;9.806;2023-03-14T10:39:54;13.20;88.50
66184;DHT22;52989;48.796;9.806;2023-03-14T10:42:27;13.00;88.20
66184;DHT22;52989;48.796;9.806;2023-03-14T10:44:57;13.10;89.80
66184;DHT22;52989;48.796;9.806;2023-03-14T10:47:24;13.00;88.90
66184;DHT22;52989;48.796;9.806;2023-03-14T10:49:51;13.10;90.00
66184;DHT22;52989;48.796;9.806;2023-03-14T10:52:28;13.00;88.60
66184;DHT22;52989;48.796;9.806;2023-03-14T10:57:20;13.40;87.80
66184;DHT22;52989;48.796;9.806;2023-03-14T10:59:46;13.60;86.80
66184;DHT22;52989;48.796;9.806;2023-03-14T11:07:05;14.30;85.10
66184;DHT22;52989;48.796;9.806;2023-03-14T11:09:42;14.90;86.30
66184;DHT22;52989;48.796;9.806;2023-03-14T11:12:34;15.00;82.90
66184;DHT22;52989;48.796;9.806;2023-03-14T11:15:02;14.50;83.40
66184;DHT22;52989;48.796;9.806;2023-03-14T11:17:33;13.80;83.60
66184;DHT22;52989;48.796;9.806;2023-03-14T11:25:13;13.10;85.90
66184;DHT22;52989;48.796;9.806;2023-03-14T11:27:52;13.10;85.10
66184;DHT22;52989;48.796;9.806;2023-03-14T11:30:26;13.00;86.10
66184;DHT22;52989;48.796;9.806;2023-03-14T11:33:00;12.50;87.20
66184;DHT22;52989;48.796;9.806;2023-03-14T11:35:36;12.70;90.70
66184;DHT22;52989;48.796;9.806;2023-03-14T11:40:27;12.40;92.20
66184;DHT22;52989;48.796;9.806;2023-03-14T11:45:35;11.40;95.20
66184;DHT22;52989;48.796;9.806;2023-03-14T11:48:07;11.30;98.00
66184;DHT22;52989;48.796;9.806;2023-03-14T11:50:35;11.30;98.50
66184;DHT22;52989;48.796;9.806;2023-03-14T11:53:06;11.20;99.60
66184;DHT22;52989;48.796;9.806;2023-03-14T11:55:35;10.90;99.90
66184;DHT22;52989;48.796;9.806;2023-03-14T11:58:03;10.90;99.90
66184;DHT22;52989;48.796;9.806;2023-03-14T12:00:33;10.70;99.90
66184;DHT22;52989;48.796;9.806;2023-03-14T12:03:03;10.60;99.90
66184;DHT22;52989;48.796;9.806;2023-03-14T12:10:38;10.70;99.90
66184;DHT22;52989;48.796;9.806;2023-03-14T12:13:04;10.60;99.90
66184;DHT22;52989;48.796;9.806;2023-03-14T12:15:31;10.40;99.90
66184;DHT22;52989;48.796;9.806;2023-03-14T12:18:02;10.30;99.90
66184;DHT22;52989;48.796;9.806;2023-03-14T12:20:28;10.40;99.90
66184;DHT22;52989;48.796;9.806;2023-03-14T12:22:54;10.50;99.90
66184;DHT22;52989;48.796;9.806;2023-03-14T12:25:21;10.50;99.90
66184;DHT22;52989;48.796;9.806;2023-03-14T12:27:49;10.60;99.90
66184;DHT22;52989;48.796;9.806;2023-03-14T12:35:40;10.30;99.90
66184;DHT22;52989;48.796;9.806;2023-03-14T12:38:16;10.30;99.90
66184;DHT22;52989;48.796;9.806;2023-03-14T12:41:35;10.30;99.90
66184;DHT22;52989;48.796;9.806;2023-03-14T12:43:30;10.30;99.90
66184;DHT22;52989;48.796;9.806;2023-03-14T12:48:31;10.10;99.90
66184;DHT22;52989;48.796;9.806;2023-03-14T12:51:02;10.00;99.90
66184;DHT22;52989;48.796;9.806;2023-03-14T12:56:06;10.20;99.90
66184;DHT22;52989;48.796;9.806;2023-03-14T12:58:44;10.10;99.90
66184;DHT22;52989;48.796;9.806;2023-03-14T13:01:16;9.90;99.90
66184;DHT22;52989;48.796;9.806;2023-03-14T13:03:45;9.90;99.90
66184;DHT22;52989;48.796;9.806;2023-03-14T13:06:11;10.30;99.90
66184;DHT22;52989;48.796;9.806;2023-03-14T13:08:39;10.50;99.90
66184;DHT22;52989;48.796;9.806;2023-03-14T13:11:25;10.70;99.90
66184;DHT22;52989;48.796;9.806;2023-03-14T13:13:59;11.10;99.90
66184;DHT22;52989;48.796;9.806;2023-03-14T13:16:25;11.10;99.90
66184;DHT22;52989;48.796;9.806;2023-03-14T13:18:51;11.10;99.90
66184;DHT22;52989;48.796;9.806;2023-03-14T13:21:24;11.10;99.90
66184;DHT22;52989;48.796;9.806;2023-03-14T13:26:24;10.60;98.00
66184;DHT22;52989;48.796;9.806;2023-03-14T13:28:50;10.50;97.00
66184;DHT22;52989;48.796;9.806;2023-03-14T13:31:23;10.60;97.20
66184;DHT22;52989;48.796;9.806;2023-03-14T13:34:01;11.00;99.40
66184;DHT22;52989;48.796;9.806;2023-03-14T13:36:27;11.20;96.50
66184;DHT22;52989;48.796;9.806;2023-03-14T13:38:59;11.30;94.40
66184;DHT22;52989;48.796;9.806;2023-03-14T13:41:27;11.20;92.70
66184;DHT22;52989;48.796;9.806;2023-03-14T13:43:52;11.00;91.10
66184;DHT22;52989;48.796;9.806;2023-03-14T13:46:23;10.90;87.90
66184;DHT22;52989;48.796;9.806;2023-03-14T13:51:19;10.70;86.10
66184;DHT22;52989;48.796;9.806;2023-03-14T13:53:49;10.60;85.20
66184;DHT22;52989;48.796;9.806;2023-03-14T13:56:15;10.20;83.00
66184;DHT22;52989;48.796;9.806;2023-03-14T13:58:41;10.20;85.40
66184;DHT22;52989;48.796;9.806;2023-03-14T14:03:43;10.30;85.70
66184;DHT22;52989;48.796;9.806;2023-03-14T14:06:10;10.20;81.60
66184;DHT22;52989;48.796;9.806;2023-03-14T14:08:41;10.00;79.40
66184;DHT22;52989;48.796;9.806;2023-03-14T14:11:07;9.80;80.60
66184;DHT22;52989;48.796;9.806;2023-03-14T14:21:28;9.80;82.60
66184;DHT22;52989;48.796;9.806;2023-03-14T14:24:16;9.70;81.20
66184;DHT22;52989;48.796;9.806;2023-03-14T14:29:59;9.60;81.20
66184;DHT22;52989;48.796;9.806;2023-03-14T14:32:26;9.80;79.60
66184;DHT22;52989;48.796;9.806;2023-03-14T14:37:21;10.10;75.60
66184;DHT22;52989;48.796;9.806;2023-03-14T14:39:48;9.90;75.10
66184;DHT22;52989;48.796;9.806;2023-03-14T14:44:49;9.70;73.40
66184;DHT22;52989;48.796;9.806;2023-03-14T14:47:23;9.50;74.90
66184;DHT22;52989;48.796;9.806;2023-03-14T14:49:49;9.40;72.00
66184;DHT22;52989;48.796;9.806;2023-03-14T14:52:30;9.10;74.30
66184;DHT22;52989;48.796;9.806;2023-03-14T14:54:59;9.20;72.50
66184;DHT22;52989;48.796;9.806;2023-03-14T14:57:26;9.20;71.70
66184;DHT22;52989;48.796;9.806;2023-03-14T15:00:08;9.20;72.00
66184;DHT22;52989;48.796;9.806;2023-03-14T15:02:45;9.10;70.00
66184;DHT22;52989;48.796;9.806;2023-03-14T15:05:12;9.00;70.70
66184;DHT22;52989;48.796;9.806;2023-03-14T15:07:38;8.90;70.70
66184;DHT22;52989;48.796;9.806;2023-03-14T15:10:03;8.90;70.10
66184;DHT22;52989;48.796;9.806;2023-03-14T15:12:29;8.90;70.50
66184;DHT22;52989;48.796;9.806;2023-03-14T15:14:54;8.90;70.80
66184;DHT22;52989;48.796;9.806;2023-03-14T15:17:22;8.80;69.90
66184;DHT22;52989;48.796;9.806;2023-03-14T15:19:48;8.80;68.90
66184;DHT22;52989;48.796;9.806;2023-03-14T15:22:13;8.70;69.60
66184;DHT22;52989;48.796;9.806;2023-03-14T15:24:40;8.80;70.00
66184;DHT22;52989;48.796;9.806;2023-03-14T15:27:08;8.80;68.60
66184;DHT22;52989;48.796;9.806;2023-03-14T15:29:35;8.70;69.40
66184;DHT22;52989;48.796;9.806;2023-03-14T15:32:02;8.60;71.00
66184;DHT22;52989;48.796;9.806;2023-03-14T15:34:28;8.70;71.40
66184;DHT22;52989;48.796;9.806;2023-03-14T15:36:53;8.60;70.30
66184;DHT22;52989;48.796;9.806;2023-03-14T15:39:19;8.60;70.60
66184;DHT22;52989;48.796;9.806;2023-03-14T15:41:44;8.60;69.10
66184;DHT22;52989;48.796;9.806;2023-03-14T15:44:10;8.70;71.50
66184;DHT22;52989;48.796;9.806;2023-03-14T15:46:35;8.60;70.90
66184;DHT22;52989;48.796;9.806;2023-03-14T15:49:01;8.60;70.30
66184;DHT22;52989;48.796;9.806;2023-03-14T15:51:26;8.80;71.60
66184;DHT22;52989;48.796;9.806;2023-03-14T15:53:52;8.90;71.10
66184;DHT22;52989;48.796;9.806;2023-03-14T15:56:18;9.00;70.90
66184;DHT22;52989;48.796;9.806;2023-03-14T15:58:44;9.10;70.20
66184;DHT22;52989;48.796;9.806;2023-03-14T16:01:12;9.40;71.20
66184;DHT22;52989;48.796;9.806;2023-03-14T16:03:38;9.60;71.80
66184;DHT22;52989;48.796;9.806;2023-03-14T16:06:04;9.40;69.60
66184;DHT22;52989;48.796;9.806;2023-03-14T16:08:29;9.40;69.60
66184;DHT22;52989;48.796;9.806;2023-03-14T16:10:55;9.20;70.00
66184;DHT22;52989;48.796;9.806;2023-03-14T16:13:20;9.30;68.60
66184;DHT22;52989;48.796;9.806;2023-03-14T16:15:53;9.10;68.20
66184;DHT22;52989;48.796;9.806;2023-03-14T16:18:18;9.10;69.60
66184;DHT22;52989;48.796;9.806;2023-03-14T16:20:44;9.20;69.30
66184;DHT22;52989;48.796;9.806;2023-03-14T16:23:16;9.10;69.70
66184;DHT22;52989;48.796;9.806;2023-03-14T16:25:43;9.10;70.40
66184;DHT22;52989;48.796;9.806;2023-03-14T16:28:09;9.20;71.00
66184;DHT22;52989;48.796;9.806;2023-03-14T16:30:34;9.10;68.90
66184;DHT22;52989;48.796;9.806;2023-03-14T16:32:59;9.10;69.90
66184;DHT22;52989;48.796;9.806;2023-03-14T16:35:26;8.90;69.70
66184;DHT22;52989;48.796;9.806;2023-03-14T16:37:52;8.70;71.80
66184;DHT22;52989;48.796;9.806;2023-03-14T16:40:17;8.50;70.00
66184;DHT22;52989;48.796;9.806;2023-03-14T16:42:43;8.40;71.90
66184;DHT22;52989;48.796;9.806;2023-03-14T16:45:08;8.40;71.60
66184;DHT22;52989;48.796;9.806;2023-03-14T16:47:34;8.30;71.40